createdAt,value
2023-03-02T00:00:57.859Z,716.00
2023-03-02T00:01:58.913Z,708.00
2023-03-02T00:02:59.052Z,700.00
2023-03-02T00:03:59.243Z,697.00
2023-03-02T00:04:58.088Z,685.00
2023-03-02T00:05:59.142Z,691.00
2023-03-02T00:06:58.213Z,690.00
2023-03-02T00:07:59.275Z,716.00
2023-03-02T00:08:59.345Z,716.00
2023-03-02T00:09:59.509Z,712.00
2023-03-02T00:10:59.483Z,699.00
2023-03-02T00:11:59.576Z,738.00
2023-03-02T00:12:58.599Z,694.00
2023-03-02T00:13:59.662Z,674.00
2023-03-02T00:14:59.727Z,687.00
2023-03-02T00:15:59.914Z,666.00
2023-03-02T00:16:59.895Z,678.00
2023-03-02T00:17:58.924Z,662.00
2023-03-02T00:18:59.995Z,672.00
2023-03-02T00:20:00.049Z,704.00
2023-03-02T00:21:00.126Z,728.00
2023-03-02T00:21:59.177Z,704.00
2023-03-02T00:23:00.248Z,693.00
2023-03-02T00:24:00.319Z,696.00
2023-03-02T00:25:00.373Z,673.00
2023-03-02T00:26:00.467Z,659.00
2023-03-02T00:27:00.509Z,681.00
2023-03-02T00:28:00.545Z,685.00
2023-03-02T00:29:00.603Z,664.00
2023-03-02T00:30:00.661Z,690.00
2023-03-02T00:31:00.787Z,672.00
2023-03-02T00:31:59.879Z,684.00
2023-03-02T00:33:00.856Z,695.00
2023-03-02T00:34:00.912Z,672.00
2023-03-02T00:35:00.974Z,661.00
2023-03-02T00:36:01.125Z,670.00
2023-03-02T00:37:01.201Z,680.00
2023-03-02T00:38:01.260Z,676.00
2023-03-02T00:39:00.516Z,663.00
2023-03-02T00:40:00.285Z,696.00
2023-03-02T00:41:01.312Z,659.00
2023-03-02T00:42:01.390Z,713.00
2023-03-02T00:43:01.405Z,707.00
2023-03-02T00:44:01.476Z,696.00
2023-03-02T00:45:01.593Z,718.00
2023-03-02T00:46:01.601Z,736.00
2023-03-02T00:47:00.815Z,728.00
2023-03-02T00:48:01.750Z,716.00
2023-03-02T00:49:01.797Z,717.00
2023-03-02T00:50:01.877Z,694.00
2023-03-02T00:51:01.917Z,723.00
2023-03-02T00:52:00.971Z,678.00
2023-03-02T00:53:02.050Z,699.00
2023-03-02T00:54:02.077Z,707.00
2023-03-02T00:55:02.148Z,724.00
2023-03-02T00:56:02.174Z,693.00
2023-03-02T00:57:01.249Z,695.00
2023-03-02T00:58:02.326Z,683.00
2023-03-02T00:59:02.347Z,707.00
2023-03-02T01:00:02.383Z,677.00
2023-03-02T01:01:02.449Z,659.00
2023-03-02T01:02:02.564Z,677.00
2023-03-02T01:03:01.622Z,731.00
2023-03-02T01:04:01.575Z,712.00
2023-03-02T01:05:01.598Z,680.00
2023-03-02T01:06:02.621Z,676.00
2023-03-02T01:07:01.669Z,687.00
2023-03-02T01:08:01.697Z,685.00
2023-03-02T01:09:01.756Z,716.00
2023-03-02T01:10:02.795Z,694.00
2023-03-02T01:11:02.855Z,667.00
2023-03-02T01:12:02.871Z,671.00
2023-03-02T01:13:01.926Z,663.00
2023-03-02T01:14:02.977Z,654.00
2023-03-02T01:15:02.999Z,665.00
2023-03-02T01:16:02.101Z,660.00
2023-03-02T01:17:03.075Z,676.00
2023-03-02T01:18:03.104Z,694.00
2023-03-02T01:19:03.146Z,726.00
2023-03-02T01:20:03.171Z,717.00
2023-03-02T01:21:02.210Z,699.00
2023-03-02T01:22:03.215Z,686.00
2023-03-02T01:23:03.253Z,666.00
2023-03-02T01:24:03.278Z,732.00
2023-03-02T01:25:03.341Z,714.00
2023-03-02T01:26:03.387Z,683.00
2023-03-02T01:27:02.489Z,666.00
2023-03-02T01:28:03.509Z,708.00
2023-03-02T01:29:02.552Z,685.00
2023-03-02T01:30:03.629Z,685.00
2023-03-02T01:31:02.686Z,677.00
2023-03-02T01:32:03.674Z,659.00
2023-03-02T01:33:03.678Z,655.00
2023-03-02T01:34:03.711Z,656.00
2023-03-02T01:35:03.753Z,653.00
2023-03-02T01:36:03.866Z,660.00
2023-03-02T01:37:03.857Z,666.00
2023-03-02T01:38:02.988Z,693.00
2023-03-02T01:39:03.893Z,702.00
2023-03-02T01:40:03.889Z,675.00
2023-03-02T01:41:03.901Z,695.00
2023-03-02T01:42:03.908Z,707.00
2023-03-02T01:43:03.973Z,711.00
2023-03-02T01:44:03.908Z,747.00
2023-03-02T01:45:02.904Z,759.00
2023-03-02T01:46:03.994Z,717.00
2023-03-02T01:47:03.881Z,684.00
2023-03-02T01:48:03.883Z,722.00
2023-03-02T01:49:03.948Z,714.00
2023-03-02T01:50:03.881Z,702.00
2023-03-02T01:51:03.869Z,671.00
2023-03-02T01:52:03.876Z,694.00
2023-03-02T01:53:04.824Z,700.00
2023-03-02T01:54:04.135Z,688.00
2023-03-02T01:55:03.118Z,699.00
2023-03-02T01:56:04.143Z,670.00
2023-03-02T01:57:04.186Z,666.00
2023-03-02T01:58:04.223Z,687.00
2023-03-02T01:59:04.274Z,695.00
2023-03-02T02:00:04.297Z,698.00
2023-03-02T02:01:04.400Z,724.00
2023-03-02T02:02:04.368Z,681.00
2023-03-02T02:03:04.407Z,665.00
2023-03-02T02:04:04.490Z,673.00
2023-03-02T02:05:04.487Z,664.00
2023-03-02T02:06:04.576Z,663.00
2023-03-02T02:07:03.594Z,655.00
2023-03-02T02:08:04.580Z,663.00
2023-03-02T02:09:04.608Z,663.00
2023-03-02T02:10:04.607Z,657.00
2023-03-02T02:11:03.635Z,653.00
2023-03-02T02:12:04.644Z,656.00
2023-03-02T02:13:04.675Z,658.00
2023-03-02T02:14:04.776Z,651.00
2023-03-02T02:15:04.694Z,658.00
2023-03-02T02:16:04.879Z,660.00
2023-03-02T02:17:03.784Z,662.00
2023-03-02T02:18:03.773Z,662.00
2023-03-02T02:19:04.775Z,654.00
2023-03-02T02:20:03.778Z,645.00
2023-03-02T02:21:04.832Z,644.00
2023-03-02T02:22:04.843Z,638.00
2023-03-02T02:23:04.848Z,642.00
2023-03-02T02:24:04.887Z,649.00
2023-03-02T02:25:04.901Z,646.00
2023-03-02T02:26:04.901Z,640.00
2023-03-02T02:27:04.894Z,653.00
2023-03-02T02:28:04.898Z,668.00
2023-03-02T02:29:04.904Z,656.00
2023-03-02T02:30:04.881Z,657.00
2023-03-02T02:31:04.879Z,658.00
2023-03-02T02:32:04.996Z,650.00
2023-03-02T02:33:04.899Z,682.00
2023-03-02T02:34:04.943Z,664.00
2023-03-02T02:35:04.916Z,650.00
2023-03-02T02:36:04.934Z,647.00
2023-03-02T02:37:04.939Z,642.00
2023-03-02T02:38:04.965Z,646.00
2023-03-02T02:39:04.972Z,661.00
2023-03-02T02:40:04.948Z,670.00
2023-03-02T02:41:04.962Z,652.00
2023-03-02T02:42:04.968Z,650.00
2023-03-02T02:43:04.962Z,652.00
2023-03-02T02:44:05.009Z,648.00
2023-03-02T02:45:04.999Z,659.00
2023-03-02T02:46:05.118Z,666.00
2023-03-02T02:47:04.000Z,658.00
2023-03-02T02:48:05.008Z,651.00
2023-03-02T02:49:05.009Z,663.00
2023-03-02T02:50:05.010Z,665.00
2023-03-02T02:51:04.991Z,677.00
2023-03-02T02:52:04.988Z,702.00
2023-03-02T02:53:04.982Z,663.00
2023-03-02T02:54:05.001Z,663.00
2023-03-02T02:55:05.040Z,661.00
2023-03-02T02:56:04.980Z,664.00
2023-03-02T02:57:04.983Z,648.00
2023-03-02T02:58:04.972Z,646.00
2023-03-02T02:59:04.982Z,639.00
2023-03-02T03:00:03.988Z,644.00
2023-03-02T03:01:05.067Z,657.00
2023-03-02T03:02:03.999Z,646.00
2023-03-02T03:03:05.008Z,649.00
2023-03-02T03:04:05.108Z,639.00
2023-03-02T03:05:05.027Z,639.00
2023-03-02T03:06:05.047Z,641.00
2023-03-02T03:07:04.043Z,645.00
2023-03-02T03:08:05.042Z,630.00
2023-03-02T03:09:05.061Z,642.00
2023-03-02T03:10:05.146Z,636.00
2023-03-02T03:11:04.164Z,635.00
2023-03-02T03:12:05.222Z,648.00
2023-03-02T03:13:05.302Z,733.00
2023-03-02T03:14:05.373Z,765.00
2023-03-02T03:15:05.410Z,803.00
2023-03-02T03:16:05.483Z,819.00
2023-03-02T03:17:05.562Z,794.00
2023-03-02T03:18:05.530Z,812.00
2023-03-02T03:19:05.585Z,855.00
2023-03-02T03:20:05.617Z,888.00
2023-03-02T03:21:05.694Z,741.00
2023-03-02T03:22:05.725Z,699.00
2023-03-02T03:23:05.737Z,657.00
2023-03-02T03:24:05.810Z,646.00
2023-03-02T03:25:05.873Z,649.00
2023-03-02T03:26:05.927Z,628.00
2023-03-02T03:27:04.978Z,618.00
2023-03-02T03:28:05.039Z,611.00
2023-03-02T03:29:06.103Z,598.00
2023-03-02T03:30:06.142Z,630.00
2023-03-02T03:31:05.337Z,600.00
2023-03-02T03:32:06.293Z,588.00
2023-03-02T03:33:06.325Z,583.00
2023-03-02T03:34:06.342Z,581.00
2023-03-02T03:35:06.385Z,574.00
2023-03-02T03:36:05.403Z,567.00
2023-03-02T03:37:06.448Z,569.00
2023-03-02T03:38:06.607Z,573.00
2023-03-02T03:39:06.507Z,565.00
2023-03-02T03:40:06.524Z,560.00
2023-03-02T03:41:06.541Z,556.00
2023-03-02T03:42:06.565Z,552.00
2023-03-02T03:43:06.591Z,554.00
2023-03-02T03:44:05.603Z,547.00
2023-03-02T03:45:06.620Z,556.00
2023-03-02T03:46:05.690Z,546.00
2023-03-02T03:47:06.663Z,546.00
2023-03-02T03:48:06.675Z,545.00
2023-03-02T03:49:06.680Z,535.00
2023-03-02T03:50:06.686Z,537.00
2023-03-02T03:51:06.703Z,534.00
2023-03-02T03:52:06.711Z,528.00
2023-03-02T03:53:05.722Z,527.00
2023-03-02T03:54:06.755Z,530.00
2023-03-02T03:55:06.756Z,527.00
2023-03-02T03:56:06.760Z,522.00
2023-03-02T03:57:06.749Z,528.00
2023-03-02T03:58:06.753Z,522.00
2023-03-02T03:59:06.787Z,522.00
2023-03-02T04:00:06.767Z,520.00
2023-03-02T04:01:06.876Z,524.00
2023-03-02T04:02:06.767Z,520.00
2023-03-02T04:03:06.773Z,522.00
2023-03-02T04:04:06.754Z,523.00
2023-03-02T04:05:06.774Z,523.00
2023-03-02T04:06:06.769Z,516.00
2023-03-02T04:07:05.767Z,516.00
2023-03-02T04:08:06.776Z,512.00
2023-03-02T04:09:06.765Z,512.00
2023-03-02T04:10:06.795Z,507.00
2023-03-02T04:11:05.744Z,504.00
2023-03-02T04:12:06.750Z,505.00
2023-03-02T04:13:06.730Z,502.00
2023-03-02T04:14:06.741Z,504.00
2023-03-02T04:15:06.747Z,508.00
2023-03-02T04:16:06.788Z,508.00
2023-03-02T04:17:06.749Z,508.00
2023-03-02T04:18:06.726Z,513.00
2023-03-02T04:19:06.738Z,509.00
2023-03-02T04:20:06.734Z,505.00
2023-03-02T04:21:06.736Z,503.00
2023-03-02T04:22:06.762Z,509.00
2023-03-02T04:23:05.743Z,504.00
2023-03-02T04:24:06.727Z,500.00
2023-03-02T04:25:06.732Z,503.00
2023-03-02T04:26:06.753Z,509.00
2023-03-02T04:27:06.754Z,501.00
2023-03-02T04:28:06.736Z,500.00
2023-03-02T04:29:06.723Z,506.00
2023-03-02T04:30:05.746Z,508.00
2023-03-02T04:31:06.758Z,508.00
2023-03-02T04:32:06.747Z,511.00
2023-03-02T04:33:06.716Z,507.00
2023-03-02T04:34:06.738Z,510.00
2023-03-02T04:35:05.722Z,504.00
2023-03-02T04:36:06.903Z,501.00
2023-03-02T04:37:06.712Z,504.00
2023-03-02T04:38:06.701Z,504.00
2023-03-02T04:39:05.717Z,506.00
2023-03-02T04:40:06.700Z,503.00
2023-03-02T04:41:06.713Z,505.00
2023-03-02T04:42:06.781Z,508.00
2023-03-02T04:43:06.698Z,504.00
2023-03-02T04:44:06.688Z,504.00
2023-03-02T04:45:06.696Z,501.00
2023-03-02T04:46:06.746Z,503.00
2023-03-02T04:47:06.739Z,509.00
2023-03-02T04:48:06.729Z,504.00
2023-03-02T04:49:06.738Z,500.00
2023-03-02T04:50:06.752Z,505.00
2023-03-02T04:51:06.750Z,513.00
2023-03-02T04:52:06.775Z,504.00
2023-03-02T04:53:06.754Z,503.00
2023-03-02T04:54:05.774Z,507.00
2023-03-02T04:55:05.764Z,502.00
2023-03-02T04:56:05.764Z,503.00
2023-03-02T04:57:06.768Z,507.00
2023-03-02T04:58:06.804Z,505.00
2023-03-02T04:59:06.817Z,508.00
2023-03-02T05:00:06.854Z,511.00
2023-03-02T05:01:06.872Z,514.00
2023-03-02T05:02:06.978Z,509.00
2023-03-02T05:03:06.970Z,504.00
2023-03-02T05:04:06.988Z,502.00
2023-03-02T05:05:06.971Z,506.00
2023-03-02T05:06:07.016Z,502.00
2023-03-02T05:07:07.057Z,516.00
2023-03-02T05:08:07.075Z,510.00
2023-03-02T05:09:06.114Z,504.00
2023-03-02T05:10:07.148Z,514.00
2023-03-02T05:11:07.178Z,508.00
2023-03-02T05:12:07.224Z,500.00
2023-03-02T05:13:07.273Z,513.00
2023-03-02T05:14:07.397Z,509.00
2023-03-02T05:15:07.388Z,510.00
2023-03-02T05:16:07.477Z,508.00
2023-03-02T05:17:07.491Z,508.00
2023-03-02T05:18:06.552Z,507.00
2023-03-02T05:19:07.605Z,503.00
2023-03-02T05:20:07.635Z,511.00
2023-03-02T05:21:07.664Z,509.00
2023-03-02T05:22:07.679Z,507.00
2023-03-02T05:23:07.715Z,509.00
2023-03-02T05:24:07.748Z,508.00
2023-03-02T05:25:07.795Z,504.00
2023-03-02T05:26:07.841Z,503.00
2023-03-02T05:27:07.845Z,506.00
2023-03-02T05:28:07.877Z,509.00
2023-03-02T05:29:07.929Z,507.00
2023-03-02T05:30:08.074Z,506.00
2023-03-02T05:31:07.075Z,500.00
2023-03-02T05:32:08.165Z,513.00
2023-03-02T05:33:08.069Z,503.00
2023-03-02T05:34:07.093Z,508.00
2023-03-02T05:35:08.112Z,510.00
2023-03-02T05:36:08.142Z,514.00
2023-03-02T05:37:07.148Z,504.00
2023-03-02T05:38:08.193Z,508.00
2023-03-02T05:39:08.244Z,503.00
2023-03-02T05:40:08.268Z,508.00
2023-03-02T05:41:08.306Z,507.00
2023-03-02T05:42:08.338Z,511.00
2023-03-02T05:43:08.396Z,505.00
2023-03-02T05:44:08.413Z,506.00
2023-03-02T05:45:08.436Z,505.00
2023-03-02T05:46:08.494Z,511.00
2023-03-02T05:47:07.544Z,500.00
2023-03-02T05:48:08.487Z,505.00
2023-03-02T05:49:08.535Z,511.00
2023-03-02T05:50:08.568Z,508.00
2023-03-02T05:51:08.581Z,505.00
2023-03-02T05:52:08.596Z,507.00
2023-03-02T05:53:08.620Z,506.00
2023-03-02T05:54:07.648Z,510.00
2023-03-02T05:55:07.657Z,508.00
2023-03-02T05:56:08.677Z,502.00
2023-03-02T05:57:08.688Z,502.00
2023-03-02T05:58:08.671Z,514.00
2023-03-02T05:59:08.690Z,505.00
2023-03-02T06:00:08.683Z,507.00
2023-03-02T06:01:08.685Z,509.00
2023-03-02T06:02:08.839Z,505.00
2023-03-02T06:03:08.794Z,511.00
2023-03-02T06:04:08.714Z,509.00
2023-03-02T06:05:08.728Z,510.00
2023-03-02T06:06:08.750Z,502.00
2023-03-02T06:07:07.735Z,509.00
2023-03-02T06:08:07.755Z,513.00
2023-03-02T06:09:08.761Z,504.00
2023-03-02T06:10:08.804Z,509.00
2023-03-02T06:11:08.830Z,501.00
2023-03-02T06:12:08.806Z,506.00
2023-03-02T06:13:08.851Z,508.00
2023-03-02T06:14:08.821Z,508.00
2023-03-02T06:15:08.839Z,506.00
2023-03-02T06:16:08.974Z,515.00
2023-03-02T06:17:08.852Z,509.00
2023-03-02T06:18:08.878Z,510.00
2023-03-02T06:19:08.885Z,514.00
2023-03-02T06:20:08.882Z,505.00
2023-03-02T06:21:08.879Z,507.00
2023-03-02T06:22:08.905Z,505.00
2023-03-02T06:23:08.919Z,504.00
2023-03-02T06:24:07.892Z,516.00
2023-03-02T06:25:08.902Z,511.00
2023-03-02T06:26:08.882Z,511.00
2023-03-02T06:27:08.878Z,509.00
2023-03-02T06:28:08.899Z,514.00
2023-03-02T06:29:07.890Z,519.00
2023-03-02T06:30:08.928Z,518.00
2023-03-02T06:31:08.916Z,534.00
2023-03-02T06:32:08.122Z,526.00
2023-03-02T06:33:08.908Z,522.00
2023-03-02T06:34:08.962Z,520.00
2023-03-02T06:35:09.059Z,524.00
2023-03-02T06:36:08.300Z,517.00
2023-03-02T06:37:09.080Z,512.00
2023-03-02T06:38:09.087Z,520.00
2023-03-02T06:39:09.099Z,554.00
2023-03-02T06:40:09.173Z,632.00
2023-03-02T06:41:08.184Z,578.00
2023-03-02T06:42:09.215Z,571.00
2023-03-02T06:43:09.265Z,606.00
2023-03-02T06:44:09.310Z,589.00
2023-03-02T06:45:09.392Z,572.00
2023-03-02T06:46:09.584Z,554.00
2023-03-02T06:47:08.456Z,567.00
2023-03-02T06:48:09.487Z,527.00
2023-03-02T06:49:09.526Z,509.00
2023-03-02T06:52:09.608Z,500.00
2023-03-02T06:53:08.696Z,500.00
2023-03-02T06:54:08.684Z,504.00
2023-03-02T06:55:09.698Z,519.00
2023-03-02T06:58:09.757Z,558.00
2023-03-02T07:00:10.313Z,540.00
2023-03-02T07:02:08.908Z,526.00
2023-03-02T07:03:09.924Z,542.00
2023-03-02T07:05:10.056Z,559.00
2023-03-02T07:06:10.076Z,564.00
2023-03-02T07:07:10.089Z,573.00
2023-03-02T07:08:09.153Z,583.00
2023-03-02T07:11:10.259Z,598.00
2023-03-02T07:17:09.389Z,653.00
2023-03-02T07:19:09.379Z,697.00
2023-03-02T07:24:09.379Z,872.00
2023-03-02T07:27:09.430Z,987.00
2023-03-02T07:28:09.475Z,1034.00
2023-03-02T07:38:09.823Z,1281.00
2023-03-02T08:51:14.528Z,1059.00
2023-03-02T09:02:14.384Z,1025.00
2023-03-02T09:03:14.332Z,1010.00
2023-03-02T09:06:13.336Z,1001.00
2023-03-02T09:07:16.530Z,1002.00
2023-03-02T09:45:13.247Z,495.00
2023-03-02T09:46:14.368Z,502.00
2023-03-02T09:54:14.560Z,500.00
2023-03-02T09:55:14.502Z,493.00
2023-03-02T09:58:14.640Z,521.00
2023-03-02T09:59:14.651Z,510.00
2023-03-02T10:00:19.435Z,511.00
2023-03-02T10:09:14.597Z,623.00
2023-03-02T10:10:14.603Z,639.00
2023-03-02T10:11:14.598Z,639.00
2023-03-02T10:12:14.594Z,657.00
2023-03-02T10:13:14.567Z,667.00
2023-03-02T10:14:14.573Z,690.00
2023-03-02T10:15:14.563Z,700.00
2023-03-02T10:16:14.623Z,756.00
2023-03-02T10:17:14.547Z,780.00
2023-03-02T10:20:14.515Z,845.00
2023-03-02T10:22:14.507Z,782.00
2023-03-02T10:23:14.499Z,754.00
2023-03-02T10:24:14.523Z,688.00
2023-03-02T10:25:14.565Z,742.00
2023-03-02T10:27:14.493Z,791.00
2023-03-02T10:34:14.522Z,873.00
2023-03-02T10:39:14.437Z,954.00
2023-03-02T10:41:14.514Z,965.00
2023-03-02T10:42:14.566Z,969.00
2023-03-02T10:43:14.583Z,988.00
2023-03-02T10:44:14.635Z,994.00
2023-03-02T10:45:14.686Z,961.00
2023-03-02T10:46:14.804Z,990.00
2023-03-02T10:47:15.088Z,941.00
2023-03-02T10:49:21.057Z,795.00
2023-03-02T10:50:14.808Z,796.00
2023-03-02T10:51:14.806Z,773.00
2023-03-02T10:52:15.068Z,799.00
2023-03-02T10:54:14.759Z,790.00
2023-03-02T10:55:14.744Z,766.00
2023-03-02T10:56:14.749Z,769.00
2023-03-02T10:57:14.734Z,769.00
2023-03-02T11:01:14.809Z,713.00
2023-03-02T11:02:14.720Z,732.00
2023-03-02T11:03:14.686Z,700.00
2023-03-02T11:04:14.718Z,738.00
2023-03-02T11:05:14.681Z,714.00
2023-03-02T11:07:14.707Z,775.00
2023-03-02T11:09:14.650Z,764.00
2023-03-02T11:12:14.649Z,780.00
2023-03-02T11:13:14.641Z,756.00
2023-03-02T11:14:14.627Z,789.00
2023-03-02T11:16:14.680Z,787.00
2023-03-02T11:20:14.685Z,720.00
2023-03-02T11:23:14.718Z,760.00
2023-03-02T11:25:14.775Z,772.00
2023-03-02T11:26:13.799Z,766.00
2023-03-02T11:27:14.849Z,759.00
2023-03-02T11:28:13.920Z,774.00
2023-03-02T11:29:14.949Z,731.00
2023-03-02T11:31:15.084Z,778.00
2023-03-02T11:34:18.008Z,793.00
2023-03-02T11:35:15.230Z,796.00
2023-03-02T11:36:15.207Z,802.00
2023-03-02T11:37:15.284Z,817.00
2023-03-02T11:38:14.221Z,848.00
2023-03-02T11:39:15.192Z,903.00
2023-03-02T11:40:14.178Z,914.00
2023-03-02T11:41:15.229Z,904.00
2023-03-02T11:42:14.209Z,928.00
2023-03-02T11:43:15.569Z,957.00
2023-03-02T11:44:15.156Z,978.00
2023-03-02T11:46:21.651Z,989.00
2023-03-02T11:47:15.226Z,990.00
2023-03-02T11:49:15.127Z,1000.00
2023-03-02T11:50:14.107Z,1011.00
2023-03-02T11:51:15.107Z,1041.00
2023-03-02T11:52:16.724Z,1008.00
2023-03-02T11:54:15.120Z,1017.00
2023-03-02T11:55:14.092Z,1016.00
2023-03-02T11:56:15.060Z,1043.00
2023-03-02T11:57:15.092Z,1019.00
2023-03-02T11:58:14.057Z,1022.00
2023-03-02T11:59:15.072Z,1005.00
2023-03-02T12:00:15.049Z,985.00
2023-03-02T12:01:15.029Z,1027.00
2023-03-02T12:02:15.098Z,1035.00
2023-03-02T12:03:15.027Z,991.00
2023-03-02T12:04:15.013Z,972.00
2023-03-02T12:05:15.023Z,1026.00
2023-03-02T12:06:14.001Z,1010.00
2023-03-02T12:07:14.974Z,998.00
2023-03-02T12:08:14.988Z,1001.00
2023-03-02T12:09:14.055Z,965.00
2023-03-02T12:10:14.990Z,1003.00
2023-03-02T12:11:14.964Z,1005.00
2023-03-02T12:12:14.976Z,966.00
2023-03-02T12:13:14.942Z,978.00
2023-03-02T12:14:14.925Z,976.00
2023-03-02T12:15:14.966Z,983.00
2023-03-02T12:16:14.966Z,960.00
2023-03-02T12:17:16.573Z,995.00
2023-03-02T12:18:15.155Z,981.00
2023-03-02T12:19:15.168Z,981.00
2023-03-02T12:27:15.663Z,919.00
2023-03-02T12:28:15.727Z,936.00
2023-03-02T12:32:14.927Z,931.00
2023-03-02T12:33:14.995Z,935.00
2023-03-02T12:35:16.073Z,942.00
2023-03-02T12:41:16.308Z,907.00
2023-03-02T12:42:16.380Z,903.00
2023-03-02T12:44:16.441Z,918.00
2023-03-02T12:52:16.853Z,893.00
2023-03-02T13:13:15.873Z,856.00
2023-03-02T13:21:15.870Z,845.00
2023-03-02T13:30:16.021Z,861.00
2023-03-02T13:33:17.008Z,847.00
2023-03-02T13:34:16.003Z,850.00
2023-03-02T13:39:16.978Z,831.00
2023-03-02T13:40:17.004Z,830.00
2023-03-02T13:41:15.989Z,831.00
2023-03-02T13:42:17.029Z,832.00
2023-03-02T13:43:16.022Z,838.00
2023-03-02T13:45:17.015Z,832.00
2023-03-02T13:46:16.240Z,829.00
2023-03-02T13:47:16.043Z,828.00
2023-03-02T13:48:17.062Z,827.00
2023-03-02T13:50:16.151Z,833.00
2023-03-02T13:51:17.075Z,827.00
2023-03-02T13:52:17.065Z,822.00
2023-03-02T13:54:17.063Z,817.00
2023-03-02T13:57:16.125Z,814.00
2023-03-02T13:58:17.169Z,812.00
2023-03-02T13:59:17.141Z,821.00
2023-03-02T14:00:17.151Z,811.00
2023-03-02T14:01:17.246Z,815.00
2023-03-02T14:03:17.241Z,815.00
2023-03-02T14:04:16.309Z,818.00
2023-03-02T14:05:17.495Z,812.00
2023-03-02T14:06:17.265Z,809.00
2023-03-02T14:20:17.553Z,803.00
2023-03-02T14:21:17.623Z,799.00
2023-03-02T14:22:16.599Z,796.00
2023-03-02T14:23:17.653Z,798.00
2023-03-02T14:24:16.660Z,791.00
2023-03-02T14:25:17.766Z,792.00
2023-03-02T14:26:17.710Z,801.00
2023-03-02T14:27:17.740Z,794.00
2023-03-02T14:28:19.878Z,801.00
2023-03-02T14:29:17.758Z,797.00
2023-03-02T14:30:16.759Z,813.00
2023-03-02T14:31:17.756Z,795.00
2023-03-02T14:32:17.752Z,791.00
2023-03-02T14:33:16.733Z,790.00
2023-03-02T14:34:17.770Z,796.00
2023-03-02T14:35:16.797Z,788.00
2023-03-02T14:40:16.668Z,799.00
2023-03-02T14:48:17.615Z,803.00
2023-03-02T14:49:17.642Z,785.00
2023-03-02T15:01:16.606Z,784.00
2023-03-02T15:15:18.349Z,786.00
2023-03-02T16:30:23.054Z,712.00
2023-03-02T16:31:19.967Z,712.00
2023-03-02T16:32:19.068Z,715.00
2023-03-02T16:33:19.882Z,722.00
2023-03-02T16:34:18.890Z,732.00
2023-03-02T16:35:19.888Z,743.00
2023-03-02T16:36:18.862Z,752.00
2023-03-02T16:37:18.926Z,732.00
2023-03-02T16:38:19.861Z,723.00
2023-03-02T16:39:19.862Z,732.00
2023-03-02T16:40:18.848Z,725.00
2023-03-02T16:41:19.842Z,707.00
2023-03-02T16:42:20.656Z,726.00
2023-03-02T16:43:19.851Z,721.00
2023-03-02T16:44:19.827Z,720.00
2023-03-02T16:45:19.822Z,732.00
2023-03-02T16:46:19.817Z,722.00
2023-03-02T16:47:19.797Z,705.00
2023-03-02T16:48:19.788Z,706.00
2023-03-02T16:49:19.776Z,712.00
2023-03-02T16:50:19.768Z,717.00
2023-03-02T16:51:19.772Z,712.00
2023-03-02T16:52:19.761Z,729.00
2023-03-02T16:53:19.753Z,715.00
2023-03-02T16:54:19.758Z,715.00
2023-03-02T16:55:19.732Z,715.00
2023-03-02T16:56:19.726Z,704.00
2023-03-02T16:57:19.718Z,701.00
2023-03-02T16:58:19.728Z,704.00
2023-03-02T16:59:19.718Z,695.00
2023-03-02T17:00:19.705Z,703.00
2023-03-02T17:01:19.775Z,690.00
2023-03-02T17:02:18.707Z,694.00
2023-03-02T17:03:19.697Z,689.00
2023-03-02T17:04:18.781Z,690.00
2023-03-02T17:05:18.717Z,680.00
2023-03-02T17:06:19.690Z,685.00
2023-03-02T17:07:19.691Z,688.00
2023-03-02T17:08:19.690Z,696.00
2023-03-02T17:09:18.738Z,707.00
2023-03-02T17:10:19.698Z,689.00
2023-03-02T17:11:19.694Z,704.00
2023-03-02T17:12:19.690Z,693.00
2023-03-02T17:13:18.687Z,714.00
2023-03-02T17:14:18.722Z,698.00
2023-03-02T17:15:18.700Z,691.00
2023-03-02T17:16:19.693Z,705.00
2023-03-02T17:17:19.704Z,696.00
2023-03-02T17:18:19.748Z,691.00
2023-03-02T17:19:19.699Z,673.00
2023-03-02T17:20:19.704Z,666.00
2023-03-02T17:21:19.702Z,671.00
2023-03-02T17:22:19.702Z,670.00
2023-03-02T17:23:19.690Z,663.00
2023-03-02T17:24:19.716Z,664.00
2023-03-02T17:25:19.693Z,664.00
2023-03-02T17:26:19.757Z,674.00
2023-03-02T17:27:25.228Z,681.00
2023-03-02T17:28:19.695Z,682.00
2023-03-02T17:29:19.696Z,684.00
2023-03-02T17:30:19.718Z,684.00
2023-03-02T17:31:19.706Z,671.00
2023-03-02T17:32:19.659Z,679.00
2023-03-02T17:33:19.652Z,665.00
2023-03-02T17:34:19.659Z,662.00
2023-03-02T17:35:18.645Z,666.00
2023-03-02T17:36:19.632Z,665.00
2023-03-02T17:37:19.636Z,661.00
2023-03-02T17:38:19.625Z,658.00
2023-03-02T17:39:18.623Z,651.00
2023-03-02T17:40:19.603Z,656.00
2023-03-02T17:41:19.611Z,661.00
2023-03-02T17:42:19.635Z,664.00
2023-03-02T17:43:19.594Z,663.00
2023-03-02T17:44:18.582Z,662.00
2023-03-02T17:45:19.576Z,664.00
2023-03-02T17:46:19.614Z,661.00
2023-03-02T17:47:18.574Z,656.00
2023-03-02T17:48:19.566Z,653.00
2023-03-02T17:49:19.540Z,654.00
2023-03-02T17:50:19.548Z,657.00
2023-03-02T17:51:19.537Z,673.00
2023-03-02T17:52:19.523Z,680.00
2023-03-02T17:53:18.525Z,662.00
2023-03-02T17:54:19.533Z,659.00
2023-03-02T17:55:19.538Z,660.00
2023-03-02T17:56:19.526Z,655.00
2023-03-02T17:57:18.491Z,650.00
2023-03-02T17:58:19.481Z,652.00
2023-03-02T17:59:19.486Z,641.00
2023-03-02T18:00:19.497Z,646.00
2023-03-02T18:01:19.468Z,639.00
2023-03-02T18:02:19.475Z,645.00
2023-03-02T18:03:19.554Z,651.00
2023-03-02T18:04:19.457Z,643.00
2023-03-02T18:05:19.432Z,646.00
2023-03-02T18:06:19.427Z,651.00
2023-03-02T18:07:19.418Z,658.00
2023-03-02T18:08:18.417Z,641.00
2023-03-02T18:09:19.399Z,652.00
2023-03-02T18:10:19.398Z,643.00
2023-03-02T18:11:19.386Z,643.00
2023-03-02T18:12:19.384Z,631.00
2023-03-02T18:13:19.378Z,632.00
2023-03-02T18:14:19.379Z,630.00
2023-03-02T18:15:19.393Z,630.00
2023-03-02T18:16:19.400Z,627.00
2023-03-02T18:17:19.331Z,634.00
2023-03-02T18:18:19.365Z,628.00
2023-03-02T18:19:19.348Z,624.00
2023-03-02T18:20:19.397Z,625.00
2023-03-02T18:21:19.467Z,631.00
2023-03-02T18:22:19.504Z,629.00
2023-03-02T18:23:19.546Z,630.00
2023-03-02T18:24:19.612Z,627.00
2023-03-02T18:25:18.655Z,629.00
2023-03-02T18:26:18.711Z,628.00
2023-03-02T18:27:19.890Z,628.00
2023-03-02T18:28:19.819Z,620.00
2023-03-02T18:29:18.867Z,619.00
2023-03-02T18:30:19.919Z,616.00
2023-03-02T18:31:20.103Z,621.00
2023-03-02T18:32:19.113Z,620.00
2023-03-02T18:33:19.108Z,614.00
2023-03-02T18:34:20.169Z,612.00
2023-03-02T18:35:20.233Z,607.00
2023-03-02T18:36:20.291Z,613.00
2023-03-02T18:37:19.330Z,613.00
2023-03-02T18:38:19.397Z,605.00
2023-03-02T18:39:20.429Z,610.00
2023-03-02T18:40:20.476Z,609.00
2023-03-02T18:41:20.541Z,605.00
2023-03-02T18:42:20.592Z,606.00
2023-03-02T18:43:20.659Z,600.00
2023-03-02T18:44:20.763Z,603.00
2023-03-02T18:45:20.775Z,606.00
2023-03-02T18:46:20.886Z,605.00
2023-03-02T18:47:19.891Z,610.00
2023-03-02T18:48:20.931Z,610.00
2023-03-02T18:49:20.992Z,609.00
2023-03-02T18:50:21.085Z,608.00
2023-03-02T18:51:21.105Z,613.00
2023-03-02T18:52:21.159Z,613.00
2023-03-02T18:53:20.244Z,609.00
2023-03-02T18:54:21.293Z,609.00
2023-03-02T18:55:20.368Z,615.00
2023-03-02T18:56:20.451Z,613.00
2023-03-02T18:57:21.439Z,621.00
2023-03-02T18:58:21.483Z,611.00
2023-03-02T18:59:21.537Z,616.00
2023-03-02T19:00:20.589Z,627.00
2023-03-02T19:01:21.731Z,626.00
2023-03-02T19:02:20.785Z,616.00
2023-03-02T19:03:22.723Z,615.00
2023-03-02T19:04:21.795Z,609.00
2023-03-02T19:05:21.862Z,610.00
2023-03-02T19:06:20.951Z,604.00